sensor_id;sensor_type;location;lat;lon;timestamp;pressure;altitude;pressure_sealevel;temperature;humidity
71573;BME280;59408;51.032;9.410;2023-06-10T00:03:23;98912.75;;;12.77;96.13
71573;BME280;59408;51.032;9.410;2023-06-10T00:05:50;98918.97;;;12.74;94.31
71573;BME280;59408;51.032;9.410;2023-06-10T00:08:17;98913.84;;;12.72;93.73
71573;BME280;59408;51.032;9.410;2023-06-10T00:10:43;98915.69;;;12.68;94.38
71573;BME280;59408;51.032;9.410;2023-06-10T00:13:10;98920.34;;;12.68;93.65
71573;BME280;59408;51.032;9.410;2023-06-10T00:15:37;98920.28;;;12.64;94.59
71573;BME280;59408;51.032;9.410;2023-06-10T00:18:04;98912.00;;;12.61;95.87
71573;BME280;59408;51.032;9.410;2023-06-10T00:20:32;98916.50;;;12.53;96.16
71573;BME280;59408;51.032;9.410;2023-06-10T00:22:59;98917.56;;;12.48;97.09
71573;BME280;59408;51.032;9.410;2023-06-10T00:25:25;98917.94;;;12.47;97.29
71573;BME280;59408;51.032;9.410;2023-06-10T00:27:52;98917.72;;;12.40;97.80
71573;BME280;59408;51.032;9.410;2023-06-10T00:30:18;98914.94;;;12.36;96.49
71573;BME280;59408;51.032;9.410;2023-06-10T00:32:45;98913.59;;;12.30;98.38
71573;BME280;59408;51.032;9.410;2023-06-10T00:35:12;98913.50;;;12.27;97.11
71573;BME280;59408;51.032;9.410;2023-06-10T00:37:40;98906.47;;;12.26;98.65
71573;BME280;59408;51.032;9.410;2023-06-10T00:40:07;98909.09;;;12.22;97.62
71573;BME280;59408;51.032;9.410;2023-06-10T00:42:34;98909.38;;;12.17;97.99
71573;BME280;59408;51.032;9.410;2023-06-10T00:45:01;98917.22;;;12.19;97.20
71573;BME280;59408;51.032;9.410;2023-06-10T00:47:28;98913.69;;;12.18;97.48
71573;BME280;59408;51.032;9.410;2023-06-10T00:49:55;98918.25;;;12.14;98.53
71573;BME280;59408;51.032;9.410;2023-06-10T00:52:26;98919.66;;;12.08;99.14
71573;BME280;59408;51.032;9.410;2023-06-10T00:54:55;98921.94;;;12.06;97.72
71573;BME280;59408;51.032;9.410;2023-06-10T00:57:21;98922.19;;;12.01;98.70
71573;BME280;59408;51.032;9.410;2023-06-10T00:59:49;98918.47;;;11.93;97.93
71573;BME280;59408;51.032;9.410;2023-06-10T01:02:15;98914.16;;;11.92;98.34
71573;BME280;59408;51.032;9.410;2023-06-10T01:04:42;98914.16;;;11.92;99.14
71573;BME280;59408;51.032;9.410;2023-06-10T01:07:15;98915.66;;;11.90;99.00
71573;BME280;59408;51.032;9.410;2023-06-10T01:09:49;98912.75;;;11.83;99.05
71573;BME280;59408;51.032;9.410;2023-06-10T01:12:28;98913.44;;;11.80;99.24
71573;BME280;59408;51.032;9.410;2023-06-10T01:14:58;98914.47;;;11.75;99.67
71573;BME280;59408;51.032;9.410;2023-06-10T01:17:25;98910.16;;;11.74;100.00
71573;BME280;59408;51.032;9.410;2023-06-10T01:19:53;98913.59;;;11.71;98.01
71573;BME280;59408;51.032;9.410;2023-06-10T01:22:22;98916.22;;;11.67;99.91
71573;BME280;59408;51.032;9.410;2023-06-10T01:24:49;98920.00;;;11.63;99.83
71573;BME280;59408;51.032;9.410;2023-06-10T01:27:17;98921.16;;;11.62;98.73
71573;BME280;59408;51.032;9.410;2023-06-10T01:29:49;98920.59;;;11.56;100.00
71573;BME280;59408;51.032;9.410;2023-06-10T01:32:19;98923.91;;;11.50;100.00
71573;BME280;59408;51.032;9.410;2023-06-10T01:34:49;98931.56;;;11.44;100.00
71573;BME280;59408;51.032;9.410;2023-06-10T01:37:19;98921.00;;;11.43;100.00
71573;BME280;59408;51.032;9.410;2023-06-10T01:39:48;98921.78;;;11.43;100.00
71573;BME280;59408;51.032;9.410;2023-06-10T01:42:15;98919.75;;;11.40;100.00
71573;BME280;59408;51.032;9.410;2023-06-10T01:44:42;98921.69;;;11.40;100.00
71573;BME280;59408;51.032;9.410;2023-06-10T01:47:09;98923.19;;;11.37;100.00
71573;BME280;59408;51.032;9.410;2023-06-10T01:49:35;98924.66;;;11.34;100.00
71573;BME280;59408;51.032;9.410;2023-06-10T01:52:03;98922.63;;;11.31;100.00
71573;BME280;59408;51.032;9.410;2023-06-10T01:54:29;98921.41;;;11.29;100.00
71573;BME280;59408;51.032;9.410;2023-06-10T01:56:57;98917.75;;;11.25;100.00
71573;BME280;59408;51.032;9.410;2023-06-10T01:59:24;98917.56;;;11.18;100.00
71573;BME280;59408;51.032;9.410;2023-06-10T02:01:50;98915.50;;;11.15;100.00
71573;BME280;59408;51.032;9.410;2023-06-10T02:04:17;98917.34;;;11.11;100.00
71573;BME280;59408;51.032;9.410;2023-06-10T02:06:44;98918.03;;;11.08;100.00
71573;BME280;59408;51.032;9.410;2023-06-10T02:09:10;98921.44;;;11.05;100.00
71573;BME280;59408;51.032;9.410;2023-06-10T02:11:37;98922.47;;;11.00;100.00
71573;BME280;59408;51.032;9.410;2023-06-10T02:14:05;98931.34;;;10.97;100.00
71573;BME280;59408;51.032;9.410;2023-06-10T02:16:31;98932.81;;;10.94;100.00
71573;BME280;59408;51.032;9.410;2023-06-10T02:18:58;98930.88;;;10.95;100.00
71573;BME280;59408;51.032;9.410;2023-06-10T02:21:25;98929.31;;;10.94;100.00
71573;BME280;59408;51.032;9.410;2023-06-10T02:23:52;98936.25;;;10.91;100.00
71573;BME280;59408;51.032;9.410;2023-06-10T02:26:18;98939.31;;;10.90;100.00
71573;BME280;59408;51.032;9.410;2023-06-10T02:28:45;98931.34;;;10.85;100.00
71573;BME280;59408;51.032;9.410;2023-06-10T02:31:13;98934.78;;;10.82;100.00
71573;BME280;59408;51.032;9.410;2023-06-10T02:33:39;98936.72;;;10.81;100.00
71573;BME280;59408;51.032;9.410;2023-06-10T02:36:06;98936.25;;;10.79;100.00
71573;BME280;59408;51.032;9.410;2023-06-10T02:38:33;98939.66;;;10.76;100.00
71573;BME280;59408;51.032;9.410;2023-06-10T02:40:59;98931.03;;;10.74;100.00
71573;BME280;59408;51.032;9.410;2023-06-10T02:43:26;98927.50;;;10.74;100.00
71573;BME280;59408;51.032;9.410;2023-06-10T02:45:52;98935.22;;;10.72;100.00
71573;BME280;59408;51.032;9.410;2023-06-10T02:48:20;98938.28;;;10.70;100.00
71573;BME280;59408;51.032;9.410;2023-06-10T02:50:47;98936.22;;;10.67;100.00
71573;BME280;59408;51.032;9.410;2023-06-10T02:53:13;98943.53;;;10.63;100.00
71573;BME280;59408;51.032;9.410;2023-06-10T02:55:40;98942.25;;;10.60;100.00
71573;BME280;59408;51.032;9.410;2023-06-10T02:58:07;98940.56;;;10.56;100.00
71573;BME280;59408;51.032;9.410;2023-06-10T03:00:33;98945.44;;;10.50;100.00
71573;BME280;59408;51.032;9.410;2023-06-10T03:03:00;98935.66;;;10.49;100.00
71573;BME280;59408;51.032;9.410;2023-06-10T03:05:28;98946.81;;;10.44;100.00
71573;BME280;59408;51.032;9.410;2023-06-10T03:07:54;98936.25;;;10.43;100.00
71573;BME280;59408;51.032;9.410;2023-06-10T03:10:21;98941.22;;;10.41;100.00
71573;BME280;59408;51.032;9.410;2023-06-10T03:12:47;98934.97;;;10.40;100.00
71573;BME280;59408;51.032;9.410;2023-06-10T03:15:14;98934.50;;;10.38;100.00
71573;BME280;59408;51.032;9.410;2023-06-10T03:17:41;98932.94;;;10.37;100.00
71573;BME280;59408;51.032;9.410;2023-06-10T03:20:08;98928.63;;;10.36;100.00
71573;BME280;59408;51.032;9.410;2023-06-10T03:22:36;98937.47;;;10.33;100.00
71573;BME280;59408;51.032;9.410;2023-06-10T03:25:04;98939.88;;;10.35;100.00
71573;BME280;59408;51.032;9.410;2023-06-10T03:27:31;98940.06;;;10.30;100.00
71573;BME280;59408;51.032;9.410;2023-06-10T03:29:57;98943.97;;;10.29;100.00
71573;BME280;59408;51.032;9.410;2023-06-10T03:32:24;98948.25;;;10.30;100.00
71573;BME280;59408;51.032;9.410;2023-06-10T03:34:50;98947.03;;;10.27;100.00
71573;BME280;59408;51.032;9.410;2023-06-10T03:37:17;98944.28;;;10.27;100.00
71573;BME280;59408;51.032;9.410;2023-06-10T03:39:45;98943.16;;;10.28;100.00
71573;BME280;59408;51.032;9.410;2023-06-10T03:42:12;98943.97;;;10.29;100.00
71573;BME280;59408;51.032;9.410;2023-06-10T03:44:38;98950.97;;;10.30;100.00
71573;BME280;59408;51.032;9.410;2023-06-10T03:47:05;98949.06;;;10.30;100.00
71573;BME280;59408;51.032;9.410;2023-06-10T03:49:32;98951.09;;;10.33;100.00
71573;BME280;59408;51.032;9.410;2023-06-10T03:51:59;98949.63;;;10.36;100.00
71573;BME280;59408;51.032;9.410;2023-06-10T03:54:25;98939.97;;;10.38;100.00
71573;BME280;59408;51.032;9.410;2023-06-10T03:56:53;98952.47;;;10.39;100.00
71573;BME280;59408;51.032;9.410;2023-06-10T03:59:20;98945.41;;;10.38;100.00
71573;BME280;59408;51.032;9.410;2023-06-10T04:01:46;98952.47;;;10.39;100.00
71573;BME280;59408;51.032;9.410;2023-06-10T04:04:14;98953.25;;;10.40;100.00
71573;BME280;59408;51.032;9.410;2023-06-10T04:06:41;98948.75;;;10.44;100.00
71573;BME280;59408;51.032;9.410;2023-06-10T04:09:07;98951.94;;;10.46;100.00
71573;BME280;59408;51.032;9.410;2023-06-10T04:11:34;98952.34;;;10.48;100.00
71573;BME280;59408;51.032;9.410;2023-06-10T04:14:02;98947.38;;;10.50;100.00
71573;BME280;59408;51.032;9.410;2023-06-10T04:16:29;98955.78;;;10.57;100.00
71573;BME280;59408;51.032;9.410;2023-06-10T04:18:55;98956.69;;;10.61;100.00
71573;BME280;59408;51.032;9.410;2023-06-10T04:21:22;98950.91;;;10.62;100.00
71573;BME280;59408;51.032;9.410;2023-06-10T04:23:48;98957.72;;;10.69;100.00
71573;BME280;59408;51.032;9.410;2023-06-10T04:26:15;98954.78;;;10.74;100.00
71573;BME280;59408;51.032;9.410;2023-06-10T04:28:42;98961.94;;;10.78;100.00
71573;BME280;59408;51.032;9.410;2023-06-10T04:31:10;98957.03;;;10.84;100.00
71573;BME280;59408;51.032;9.410;2023-06-10T04:33:37;98961.16;;;10.90;100.00
71573;BME280;59408;51.032;9.410;2023-06-10T04:36:04;98961.38;;;10.97;100.00
71573;BME280;59408;51.032;9.410;2023-06-10T04:38:31;98956.38;;;10.99;100.00
71573;BME280;59408;51.032;9.410;2023-06-10T04:40:58;98955.91;;;11.09;100.00
71573;BME280;59408;51.032;9.410;2023-06-10T04:43:25;98960.78;;;11.16;100.00
71573;BME280;59408;51.032;9.410;2023-06-10T04:45:51;98962.13;;;11.22;100.00
71573;BME280;59408;51.032;9.410;2023-06-10T04:48:19;98966.75;;;11.33;100.00
71573;BME280;59408;51.032;9.410;2023-06-10T04:50:46;98956.84;;;11.41;100.00
71573;BME280;59408;51.032;9.410;2023-06-10T04:53:13;98976.63;;;11.50;100.00
71573;BME280;59408;51.032;9.410;2023-06-10T04:55:39;98967.81;;;11.57;100.00
71573;BME280;59408;51.032;9.410;2023-06-10T04:58:06;98970.44;;;11.65;98.79
71573;BME280;59408;51.032;9.410;2023-06-10T05:00:32;98970.81;;;11.80;100.00
71573;BME280;59408;51.032;9.410;2023-06-10T05:02:59;98971.47;;;11.89;99.97
71573;BME280;59408;51.032;9.410;2023-06-10T05:05:27;98970.84;;;11.95;99.41
71573;BME280;59408;51.032;9.410;2023-06-10T05:07:54;98971.94;;;12.06;99.36
71573;BME280;59408;51.032;9.410;2023-06-10T05:10:21;98975.34;;;12.16;96.65
71573;BME280;59408;51.032;9.410;2023-06-10T05:12:47;98970.16;;;12.26;95.09
71573;BME280;59408;51.032;9.410;2023-06-10T05:15:14;98975.09;;;12.36;95.31
71573;BME280;59408;51.032;9.410;2023-06-10T05:17:40;98979.69;;;12.48;93.67
71573;BME280;59408;51.032;9.410;2023-06-10T05:20:08;98983.13;;;12.61;91.92
71573;BME280;59408;51.032;9.410;2023-06-10T05:22:36;98978.44;;;12.77;91.45
71573;BME280;59408;51.032;9.410;2023-06-10T05:25:03;98973.03;;;12.96;92.59
71573;BME280;59408;51.032;9.410;2023-06-10T05:27:30;98981.59;;;13.10;88.77
71573;BME280;59408;51.032;9.410;2023-06-10T05:29:56;98981.09;;;13.24;88.76
71573;BME280;59408;51.032;9.410;2023-06-10T05:32:23;98985.75;;;13.39;89.09
71573;BME280;59408;51.032;9.410;2023-06-10T05:34:50;98989.97;;;13.52;88.93
71573;BME280;59408;51.032;9.410;2023-06-10T05:37:16;98985.94;;;13.66;88.80
71573;BME280;59408;51.032;9.410;2023-06-10T05:39:44;98987.03;;;13.80;86.58
71573;BME280;59408;51.032;9.410;2023-06-10T05:42:11;98990.81;;;13.95;86.49
71573;BME280;59408;51.032;9.410;2023-06-10T05:44:37;98989.56;;;14.12;86.72
71573;BME280;59408;51.032;9.410;2023-06-10T05:47:04;98979.31;;;14.28;87.51
71573;BME280;59408;51.032;9.410;2023-06-10T05:49:31;98979.19;;;14.44;85.66
71573;BME280;59408;51.032;9.410;2023-06-10T05:51:58;98984.22;;;14.61;83.40
71573;BME280;59408;51.032;9.410;2023-06-10T05:54:25;98983.28;;;14.76;82.63
71573;BME280;59408;51.032;9.410;2023-06-10T05:56:56;98973.38;;;14.94;82.65
71573;BME280;59408;51.032;9.410;2023-06-10T05:59:23;98981.06;;;15.08;82.63
71573;BME280;59408;51.032;9.410;2023-06-10T06:01:49;98974.66;;;15.27;80.58
71573;BME280;59408;51.032;9.410;2023-06-10T06:04:16;98982.78;;;15.46;79.10
71573;BME280;59408;51.032;9.410;2023-06-10T06:06:43;98987.66;;;15.60;78.56
71573;BME280;59408;51.032;9.410;2023-06-10T06:09:10;98984.47;;;15.84;78.45
71573;BME280;59408;51.032;9.410;2023-06-10T06:11:36;98986.63;;;16.01;77.73
71573;BME280;59408;51.032;9.410;2023-06-10T06:14:04;98991.56;;;16.22;76.28
71573;BME280;59408;51.032;9.410;2023-06-10T06:16:31;98979.56;;;16.41;76.85
71573;BME280;59408;51.032;9.410;2023-06-10T06:18:57;98982.09;;;16.60;77.24
71573;BME280;59408;51.032;9.410;2023-06-10T06:21:24;98985.47;;;16.83;77.35
71573;BME280;59408;51.032;9.410;2023-06-10T06:23:51;98981.28;;;17.00;74.82
71573;BME280;59408;51.032;9.410;2023-06-10T06:26:18;98978.97;;;17.13;74.21
71573;BME280;59408;51.032;9.410;2023-06-10T06:28:44;98984.66;;;17.41;76.45
71573;BME280;59408;51.032;9.410;2023-06-10T06:31:12;98989.94;;;17.60;73.72
71573;BME280;59408;51.032;9.410;2023-06-10T06:33:39;98987.25;;;17.78;72.97
71573;BME280;59408;51.032;9.410;2023-06-10T06:36:06;98982.97;;;17.95;71.30
71573;BME280;59408;51.032;9.410;2023-06-10T06:38:32;98981.09;;;18.20;71.12
71573;BME280;59408;51.032;9.410;2023-06-10T06:40:59;98983.84;;;18.31;69.80
71573;BME280;59408;51.032;9.410;2023-06-10T06:43:25;98990.19;;;18.46;69.78
71573;BME280;59408;51.032;9.410;2023-06-10T06:45:52;98977.63;;;18.69;68.34
71573;BME280;59408;51.032;9.410;2023-06-10T06:48:20;98994.59;;;18.71;67.70
71573;BME280;59408;51.032;9.410;2023-06-10T06:50:47;99000.50;;;18.95;68.60
71573;BME280;59408;51.032;9.410;2023-06-10T06:53:13;98993.78;;;19.17;69.51
71573;BME280;59408;51.032;9.410;2023-06-10T06:55:40;98992.19;;;19.30;66.59
71573;BME280;59408;51.032;9.410;2023-06-10T06:58:06;99001.63;;;19.54;66.01
71573;BME280;59408;51.032;9.410;2023-06-10T07:00:33;99000.72;;;19.85;64.91
71573;BME280;59408;51.032;9.410;2023-06-10T07:03:00;98999.50;;;20.01;63.09
71573;BME280;59408;51.032;9.410;2023-06-10T07:05:28;99000.97;;;20.26;62.39
71573;BME280;59408;51.032;9.410;2023-06-10T07:07:54;99001.19;;;20.53;61.17
71573;BME280;59408;51.032;9.410;2023-06-10T07:10:21;99004.56;;;20.79;61.77
71573;BME280;59408;51.032;9.410;2023-06-10T07:12:48;99001.97;;;21.09;62.42
71573;BME280;59408;51.032;9.410;2023-06-10T07:15:15;99002.22;;;21.22;60.34
71573;BME280;59408;51.032;9.410;2023-06-10T07:17:42;99002.03;;;21.43;59.50
71573;BME280;59408;51.032;9.410;2023-06-10T07:20:10;98998.25;;;21.64;59.13
71573;BME280;59408;51.032;9.410;2023-06-10T07:22:38;99006.72;;;21.87;58.30
71573;BME280;59408;51.032;9.410;2023-06-10T07:25:05;99001.72;;;22.05;58.12
71573;BME280;59408;51.032;9.410;2023-06-10T07:27:32;99006.63;;;22.25;59.29
71573;BME280;59408;51.032;9.410;2023-06-10T07:29:58;99002.50;;;22.36;57.25
71573;BME280;59408;51.032;9.410;2023-06-10T07:32:25;99010.41;;;22.38;57.26
71573;BME280;59408;51.032;9.410;2023-06-10T07:34:52;99009.25;;;22.66;55.50
71573;BME280;59408;51.032;9.410;2023-06-10T07:37:18;99005.19;;;22.70;56.08
71573;BME280;59408;51.032;9.410;2023-06-10T07:39:46;99007.03;;;22.80;55.91
71573;BME280;59408;51.032;9.410;2023-06-10T07:42:13;99002.19;;;22.84;56.23
71573;BME280;59408;51.032;9.410;2023-06-10T07:44:40;99003.81;;;22.82;56.38
71573;BME280;59408;51.032;9.410;2023-06-10T07:47:06;99009.34;;;23.09;55.25
71573;BME280;59408;51.032;9.410;2023-06-10T07:49:33;99009.16;;;23.43;55.22
71573;BME280;59408;51.032;9.410;2023-06-10T07:51:59;99009.22;;;23.39;54.86
71573;BME280;59408;51.032;9.410;2023-06-10T07:54:26;99004.09;;;23.77;53.73
71573;BME280;59408;51.032;9.410;2023-06-10T07:56:57;99015.81;;;23.88;54.82
71573;BME280;59408;51.032;9.410;2023-06-10T07:59:23;99012.69;;;24.06;53.56
71573;BME280;59408;51.032;9.410;2023-06-10T08:01:50;99012.41;;;24.20;53.19
71573;BME280;59408;51.032;9.410;2023-06-10T08:04:17;99010.88;;;24.35;53.57
71573;BME280;59408;51.032;9.410;2023-06-10T08:06:44;99016.56;;;24.48;51.77
71573;BME280;59408;51.032;9.410;2023-06-10T08:09:10;99011.91;;;24.78;52.02
71573;BME280;59408;51.032;9.410;2023-06-10T08:11:37;99015.31;;;25.01;49.91
71573;BME280;59408;51.032;9.410;2023-06-10T08:14:05;99009.66;;;24.89;51.68
71573;BME280;59408;51.032;9.410;2023-06-10T08:16:32;99013.94;;;25.09;50.24
71573;BME280;59408;51.032;9.410;2023-06-10T08:18:59;99008.16;;;25.33;50.45
71573;BME280;59408;51.032;9.410;2023-06-10T08:21:25;99003.38;;;25.01;50.98
71573;BME280;59408;51.032;9.410;2023-06-10T08:23:52;99003.44;;;25.14;50.13
71573;BME280;59408;51.032;9.410;2023-06-10T08:26:19;99009.84;;;25.30;49.56
71573;BME280;59408;51.032;9.410;2023-06-10T08:28:46;99010.03;;;25.52;50.26
71573;BME280;59408;51.032;9.410;2023-06-10T08:31:14;99018.41;;;25.81;48.67
71573;BME280;59408;51.032;9.410;2023-06-10T08:33:41;99020.53;;;26.06;48.24
71573;BME280;59408;51.032;9.410;2023-06-10T08:36:08;99010.38;;;26.12;49.39
71573;BME280;59408;51.032;9.410;2023-06-10T08:38:34;99017.22;;;26.36;48.66
71573;BME280;59408;51.032;9.410;2023-06-10T08:41:05;99010.63;;;26.43;47.21
71573;BME280;59408;51.032;9.410;2023-06-10T08:43:34;99015.25;;;26.62;47.49
71573;BME280;59408;51.032;9.410;2023-06-10T08:46:02;99013.69;;;26.61;46.76
71573;BME280;59408;51.032;9.410;2023-06-10T08:48:30;99014.13;;;26.85;46.98
71573;BME280;59408;51.032;9.410;2023-06-10T08:51:00;99011.06;;;27.05;45.80
71573;BME280;59408;51.032;9.410;2023-06-10T08:53:31;98998.84;;;27.24;44.48
71573;BME280;59408;51.032;9.410;2023-06-10T08:56:02;99007.13;;;27.27;46.79
71573;BME280;59408;51.032;9.410;2023-06-10T08:58:32;99002.47;;;27.46;45.56
71573;BME280;59408;51.032;9.410;2023-06-10T09:00:58;99006.41;;;27.49;47.56
71573;BME280;59408;51.032;9.410;2023-06-10T09:03:25;99007.50;;;27.86;43.75
71573;BME280;59408;51.032;9.410;2023-06-10T09:05:55;99004.41;;;27.93;47.08
71573;BME280;59408;51.032;9.410;2023-06-10T09:08:22;98995.28;;;28.01;45.94
71573;BME280;59408;51.032;9.410;2023-06-10T09:10:49;98992.19;;;28.09;48.45
71573;BME280;59408;51.032;9.410;2023-06-10T09:13:16;98994.81;;;28.34;45.73
71573;BME280;59408;51.032;9.410;2023-06-10T09:15:43;98988.66;;;28.39;41.76
71573;BME280;59408;51.032;9.410;2023-06-10T09:18:09;98991.38;;;28.61;42.32
71573;BME280;59408;51.032;9.410;2023-06-10T09:20:38;98996.34;;;28.48;41.95
71573;BME280;59408;51.032;9.410;2023-06-10T09:23:06;98989.75;;;28.82;42.01
71573;BME280;59408;51.032;9.410;2023-06-10T09:25:35;98985.59;;;28.95;42.81
71573;BME280;59408;51.032;9.410;2023-06-10T09:28:03;98983.88;;;29.07;39.91
71573;BME280;59408;51.032;9.410;2023-06-10T09:30:32;98982.75;;;28.86;42.31
71573;BME280;59408;51.032;9.410;2023-06-10T09:33:01;98988.59;;;29.19;41.49
71573;BME280;59408;51.032;9.410;2023-06-10T09:35:29;98981.75;;;29.29;40.70
71573;BME280;59408;51.032;9.410;2023-06-10T09:37:57;98983.94;;;29.53;40.90
71573;BME280;59408;51.032;9.410;2023-06-10T09:40:26;98986.91;;;29.85;39.20
71573;BME280;59408;51.032;9.410;2023-06-10T09:42:54;98986.13;;;29.76;42.25
71573;BME280;59408;51.032;9.410;2023-06-10T09:45:21;98987.69;;;29.95;39.70
71573;BME280;59408;51.032;9.410;2023-06-10T09:47:51;98987.50;;;29.44;38.37
71573;BME280;59408;51.032;9.410;2023-06-10T09:50:18;98985.03;;;29.82;41.03
71573;BME280;59408;51.032;9.410;2023-06-10T09:52:46;98976.63;;;29.64;40.47
71573;BME280;59408;51.032;9.410;2023-06-10T09:55:13;98987.06;;;29.82;38.52
71573;BME280;59408;51.032;9.410;2023-06-10T09:57:41;98988.47;;;30.47;38.56
71573;BME280;59408;51.032;9.410;2023-06-10T10:00:09;98985.69;;;30.38;37.59
71573;BME280;59408;51.032;9.410;2023-06-10T10:02:44;98983.41;;;30.60;40.30
71573;BME280;59408;51.032;9.410;2023-06-10T10:05:12;98984.06;;;30.55;38.31
71573;BME280;59408;51.032;9.410;2023-06-10T10:07:40;98984.31;;;30.75;37.98
71573;BME280;59408;51.032;9.410;2023-06-10T10:10:10;98988.19;;;30.78;38.09
71573;BME280;59408;51.032;9.410;2023-06-10T10:12:38;98987.50;;;30.59;38.70
71573;BME280;59408;51.032;9.410;2023-06-10T10:15:07;98983.53;;;30.75;37.69
71573;BME280;59408;51.032;9.410;2023-06-10T10:17:38;98985.47;;;30.92;36.72
71573;BME280;59408;51.032;9.410;2023-06-10T10:20:08;98987.34;;;30.95;37.64
71573;BME280;59408;51.032;9.410;2023-06-10T10:22:39;98987.75;;;30.70;38.25
71573;BME280;59408;51.032;9.410;2023-06-10T10:25:10;98978.38;;;30.97;39.14
71573;BME280;59408;51.032;9.410;2023-06-10T10:27:42;98978.16;;;31.10;37.70
71573;BME280;59408;51.032;9.410;2023-06-10T10:30:14;98979.19;;;31.60;37.72
71573;BME280;59408;51.032;9.410;2023-06-10T10:32:47;98970.19;;;31.70;35.46
71573;BME280;59408;51.032;9.410;2023-06-10T10:35:21;98970.31;;;31.76;36.38
71573;BME280;59408;51.032;9.410;2023-06-10T10:37:48;98977.22;;;31.75;35.77
71573;BME280;59408;51.032;9.410;2023-06-10T10:40:16;98972.34;;;31.90;35.96
71573;BME280;59408;51.032;9.410;2023-06-10T10:42:43;98973.13;;;32.20;36.07
71573;BME280;59408;51.032;9.410;2023-06-10T10:45:11;98967.09;;;31.98;37.21
71573;BME280;59408;51.032;9.410;2023-06-10T10:47:39;98976.34;;;31.84;36.35
71573;BME280;59408;51.032;9.410;2023-06-10T10:50:13;98972.84;;;32.33;38.18
71573;BME280;59408;51.032;9.410;2023-06-10T10:52:51;98965.69;;;32.52;35.01
71573;BME280;59408;51.032;9.410;2023-06-10T10:55:18;98965.56;;;32.61;35.60
71573;BME280;59408;51.032;9.410;2023-06-10T10:57:53;98969.84;;;32.71;34.76
71573;BME280;59408;51.032;9.410;2023-06-10T11:00:27;98959.66;;;32.59;33.69
71573;BME280;59408;51.032;9.410;2023-06-10T11:02:57;98968.28;;;33.05;34.90
71573;BME280;59408;51.032;9.410;2023-06-10T11:05:36;98958.13;;;33.34;32.60
71573;BME280;59408;51.032;9.410;2023-06-10T11:08:03;98955.94;;;33.03;32.77
71573;BME280;59408;51.032;9.410;2023-06-10T11:10:30;98965.19;;;33.03;32.34
71573;BME280;59408;51.032;9.410;2023-06-10T11:12:57;98953.00;;;32.97;33.40
71573;BME280;59408;51.032;9.410;2023-06-10T11:15:26;98963.41;;;32.86;35.06
71573;BME280;59408;51.032;9.410;2023-06-10T11:18:13;98957.19;;;33.22;32.89
71573;BME280;59408;51.032;9.410;2023-06-10T11:21:01;98947.59;;;33.34;34.42
71573;BME280;59408;51.032;9.410;2023-06-10T11:26:20;98947.72;;;33.45;31.85
71573;BME280;59408;51.032;9.410;2023-06-10T11:29:07;98938.34;;;33.13;33.76
71573;BME280;59408;51.032;9.410;2023-06-10T11:31:39;98942.00;;;33.40;32.04
71573;BME280;59408;51.032;9.410;2023-06-10T11:34:07;98953.56;;;33.62;31.84
71573;BME280;59408;51.032;9.410;2023-06-10T11:36:38;98951.38;;;33.51;33.02
71573;BME280;59408;51.032;9.410;2023-06-10T11:39:06;98960.16;;;33.74;31.83
71573;BME280;59408;51.032;9.410;2023-06-10T11:41:33;98951.50;;;33.63;32.54
71573;BME280;59408;51.032;9.410;2023-06-10T11:44:02;98945.53;;;33.81;32.83
71573;BME280;59408;51.032;9.410;2023-06-10T11:46:29;98941.28;;;34.22;31.42
71573;BME280;59408;51.032;9.410;2023-06-10T11:48:58;98947.91;;;34.14;30.83
71573;BME280;59408;51.032;9.410;2023-06-10T11:51:26;98933.44;;;33.80;31.32
71573;BME280;59408;51.032;9.410;2023-06-10T11:53:53;98945.41;;;33.70;30.64
71573;BME280;59408;51.032;9.410;2023-06-10T11:56:20;98937.97;;;33.98;33.07
71573;BME280;59408;51.032;9.410;2023-06-10T11:58:52;98942.50;;;34.16;29.88
71573;BME280;59408;51.032;9.410;2023-06-10T12:01:20;98938.78;;;34.30;31.02
71573;BME280;59408;51.032;9.410;2023-06-10T12:04:00;98948.78;;;34.62;31.20
71573;BME280;59408;51.032;9.410;2023-06-10T12:06:28;98938.16;;;34.52;30.21
71573;BME280;59408;51.032;9.410;2023-06-10T12:09:03;98929.69;;;35.00;31.67
71573;BME280;59408;51.032;9.410;2023-06-10T12:11:50;98931.88;;;34.74;29.07
71573;BME280;59408;51.032;9.410;2023-06-10T12:14:50;98929.91;;;34.85;30.64
71573;BME280;59408;51.032;9.410;2023-06-10T12:17:17;98932.28;;;34.61;31.67
71573;BME280;59408;51.032;9.410;2023-06-10T12:19:46;98922.13;;;34.80;31.08
71573;BME280;59408;51.032;9.410;2023-06-10T12:22:13;98926.53;;;35.46;30.23
71573;BME280;59408;51.032;9.410;2023-06-10T12:24:44;98923.44;;;35.39;30.05
71573;BME280;59408;51.032;9.410;2023-06-10T12:27:11;98921.56;;;35.24;29.27
71573;BME280;59408;51.032;9.410;2023-06-10T12:29:38;98925.44;;;35.21;30.21
71573;BME280;59408;51.032;9.410;2023-06-10T12:32:05;98916.94;;;35.21;29.77
71573;BME280;59408;51.032;9.410;2023-06-10T12:34:35;98912.06;;;35.33;29.07
71573;BME280;59408;51.032;9.410;2023-06-10T12:37:04;98918.91;;;35.10;29.46
71573;BME280;59408;51.032;9.410;2023-06-10T12:39:31;98914.91;;;34.79;29.62
71573;BME280;59408;51.032;9.410;2023-06-10T12:41:58;98914.91;;;33.33;31.31
71573;BME280;59408;51.032;9.410;2023-06-10T12:44:29;98919.03;;;33.12;32.63
71573;BME280;59408;51.032;9.410;2023-06-10T12:46:56;98910.97;;;32.85;31.21
71573;BME280;59408;51.032;9.410;2023-06-10T12:49:23;98914.03;;;32.66;33.80
71573;BME280;59408;51.032;9.410;2023-06-10T12:51:49;98912.25;;;32.49;33.49
71573;BME280;59408;51.032;9.410;2023-06-10T12:54:17;98905.75;;;32.98;32.29
71573;BME280;59408;51.032;9.410;2023-06-10T12:56:44;98910.25;;;33.76;31.47
71573;BME280;59408;51.032;9.410;2023-06-10T12:59:11;98910.06;;;33.13;30.97
71573;BME280;59408;51.032;9.410;2023-06-10T13:01:37;98902.28;;;32.88;33.31
71573;BME280;59408;51.032;9.410;2023-06-10T13:04:05;98898.41;;;33.52;31.91
71573;BME280;59408;51.032;9.410;2023-06-10T13:06:31;98903.50;;;33.02;31.27